createdAt,value
2022-12-18T00:02:12.572Z,19.92
2022-12-18T00:04:39.399Z,19.58
2022-12-18T00:07:06.246Z,19.13
2022-12-18T00:09:40.220Z,20.40
2022-12-18T00:14:43.258Z,20.13
2022-12-18T00:17:10.124Z,19.48
2022-12-18T00:19:37.009Z,20.00
2022-12-18T00:22:03.901Z,17.63
2022-12-18T00:24:30.762Z,18.55
2022-12-18T00:26:57.585Z,19.17
2022-12-18T00:29:24.447Z,18.25
2022-12-18T00:31:51.359Z,18.98
2022-12-18T00:34:18.217Z,18.42
2022-12-18T00:36:45.074Z,18.95
2022-12-18T00:39:13.127Z,17.08
2022-12-18T00:41:58.339Z,18.42
2022-12-18T00:44:26.005Z,17.35
2022-12-18T00:46:52.938Z,17.15
2022-12-18T00:49:20.349Z,16.90
2022-12-18T00:51:47.348Z,16.02
2022-12-18T00:54:14.449Z,17.63
2022-12-18T00:56:49.728Z,18.17
2022-12-18T00:59:18.319Z,17.58
2022-12-18T01:01:45.797Z,17.05
2022-12-18T01:04:12.857Z,17.73
2022-12-18T01:06:39.787Z,18.40
2022-12-18T01:09:07.271Z,17.75
2022-12-18T01:11:36.998Z,17.58
2022-12-18T01:14:04.952Z,16.73
2022-12-18T01:16:32.132Z,17.42
2022-12-18T01:18:59.021Z,17.17
2022-12-18T01:21:27.767Z,16.80
2022-12-18T01:23:55.587Z,17.35
2022-12-18T01:26:24.055Z,16.50
2022-12-18T01:28:51.207Z,15.35
2022-12-18T01:31:18.033Z,16.00
2022-12-18T01:33:45.206Z,16.67
2022-12-18T01:36:25.688Z,16.20
2022-12-18T01:38:52.661Z,15.38
2022-12-18T01:41:21.196Z,17.88
2022-12-18T01:43:56.156Z,15.45
2022-12-18T01:46:26.667Z,15.13
2022-12-18T01:48:58.830Z,15.95
2022-12-18T01:51:27.690Z,15.38
2022-12-18T01:53:54.506Z,15.75
2022-12-18T01:56:21.981Z,15.27
2022-12-18T01:58:58.501Z,15.50
2022-12-18T02:01:26.014Z,15.50
2022-12-18T02:03:53.121Z,15.90
2022-12-18T02:06:35.560Z,15.10
2022-12-18T02:09:21.038Z,15.23
2022-12-18T02:12:04.809Z,15.90
2022-12-18T02:15:00.394Z,14.93
2022-12-18T02:17:42.639Z,15.45
2022-12-18T02:20:44.817Z,15.07
2022-12-18T02:23:24.899Z,14.80
2022-12-18T02:26:03.575Z,14.48
2022-12-18T02:28:33.239Z,15.20
2022-12-18T02:31:04.424Z,14.65
2022-12-18T02:33:32.565Z,15.05
2022-12-18T02:35:59.426Z,14.38
2022-12-18T02:38:27.158Z,14.50
2022-12-18T02:40:55.513Z,15.23
2022-12-18T02:43:23.010Z,13.40
2022-12-18T02:45:56.026Z,13.90
2022-12-18T02:48:25.510Z,13.57
2022-12-18T02:51:10.029Z,15.32
2022-12-18T02:53:59.846Z,13.50
2022-12-18T02:56:33.599Z,13.38
2022-12-18T02:59:08.473Z,14.07
2022-12-18T03:01:48.194Z,13.93
2022-12-18T03:04:22.576Z,14.05
2022-12-18T03:06:55.651Z,13.10
2022-12-18T03:09:25.370Z,13.35
2022-12-18T03:12:14.382Z,13.35
2022-12-18T03:14:41.327Z,13.77
2022-12-18T03:17:14.621Z,14.18
2022-12-18T03:19:41.432Z,13.50
2022-12-18T03:22:08.330Z,13.27
2022-12-18T03:24:43.960Z,12.85
2022-12-18T03:27:12.878Z,13.48
2022-12-18T03:29:48.754Z,13.18
2022-12-18T03:32:24.772Z,13.15
2022-12-18T03:34:51.899Z,13.80
2022-12-18T03:37:21.404Z,13.05
2022-12-18T03:39:48.298Z,13.45
2022-12-18T03:42:28.163Z,13.80
2022-12-18T03:45:10.018Z,12.43
2022-12-18T03:47:48.099Z,12.70
2022-12-18T03:50:47.542Z,13.52
2022-12-18T03:53:23.405Z,14.02
2022-12-18T03:55:50.680Z,13.30
2022-12-18T03:58:19.435Z,13.70
2022-12-18T04:00:55.706Z,12.73
2022-12-18T04:03:26.164Z,13.18
2022-12-18T04:05:53.908Z,12.70
2022-12-18T04:08:22.371Z,12.10
2022-12-18T04:10:57.896Z,12.38
2022-12-18T04:13:34.628Z,11.88
2022-12-18T04:16:03.188Z,13.40
2022-12-18T04:18:30.210Z,12.93
2022-12-18T04:20:57.144Z,12.15
2022-12-18T04:23:24.072Z,12.52
2022-12-18T04:25:51.027Z,12.10
2022-12-18T04:28:27.902Z,11.90
2022-12-18T04:30:54.983Z,12.40
2022-12-18T04:33:22.591Z,11.40
2022-12-18T04:35:49.441Z,12.02
2022-12-18T04:38:16.589Z,11.75
2022-12-18T04:40:44.172Z,11.70
2022-12-18T04:43:19.851Z,11.23
2022-12-18T04:45:46.811Z,11.57
2022-12-18T04:48:13.629Z,11.35
2022-12-18T04:50:40.471Z,12.25
2022-12-18T04:53:07.737Z,11.50
2022-12-18T04:55:34.600Z,12.35
2022-12-18T04:58:01.449Z,11.15
2022-12-18T05:00:28.801Z,12.55
2022-12-18T05:02:56.093Z,13.05
2022-12-18T05:05:23.021Z,11.38
2022-12-18T05:07:49.838Z,12.07
2022-12-18T05:10:16.700Z,12.48
2022-12-18T05:13:02.173Z,13.13
2022-12-18T05:15:32.534Z,12.65
2022-12-18T05:17:59.566Z,13.32
2022-12-18T05:20:26.819Z,12.43
2022-12-18T05:22:54.564Z,11.20
2022-12-18T05:25:21.558Z,12.40
2022-12-18T05:27:48.469Z,11.82
2022-12-18T05:30:15.641Z,12.07
2022-12-18T05:32:42.592Z,11.95
2022-12-18T05:35:10.283Z,11.18
2022-12-18T05:37:42.723Z,12.02
2022-12-18T05:40:10.945Z,11.18
2022-12-18T05:42:37.782Z,11.60
2022-12-18T05:45:05.329Z,11.48
2022-12-18T05:47:32.190Z,11.25
2022-12-18T05:49:59.004Z,11.80
2022-12-18T05:52:25.968Z,11.32
2022-12-18T05:54:52.918Z,11.13
2022-12-18T05:57:19.873Z,10.80
2022-12-18T05:59:46.692Z,12.60
2022-12-18T06:02:13.597Z,11.00
2022-12-18T06:04:40.553Z,11.75
2022-12-18T06:07:07.379Z,11.30
2022-12-18T06:09:34.233Z,11.98
2022-12-18T06:12:01.135Z,11.05
2022-12-18T06:14:28.069Z,11.02
2022-12-18T06:16:54.949Z,10.55
2022-12-18T06:19:21.812Z,12.02
2022-12-18T06:21:48.686Z,11.43
2022-12-18T06:24:15.723Z,11.48
2022-12-18T06:26:42.569Z,11.25
2022-12-18T06:29:09.379Z,11.13
2022-12-18T06:31:36.399Z,12.18
2022-12-18T06:34:04.346Z,12.00
2022-12-18T06:36:31.745Z,10.90
2022-12-18T06:38:58.761Z,11.38
2022-12-18T06:41:25.706Z,10.63
2022-12-18T06:43:56.818Z,11.40
2022-12-18T06:46:26.572Z,11.55
2022-12-18T06:48:53.777Z,12.45
2022-12-18T06:51:21.652Z,11.88
2022-12-18T06:53:48.611Z,11.30
2022-12-18T06:56:15.489Z,10.27
2022-12-18T06:58:42.387Z,10.75
2022-12-18T07:01:11.156Z,10.93
2022-12-18T07:03:43.580Z,10.45
2022-12-18T07:06:18.482Z,11.52
2022-12-18T07:08:45.941Z,11.35
2022-12-18T07:11:13.182Z,11.13
2022-12-18T07:13:40.374Z,11.15
2022-12-18T07:16:20.925Z,10.02
2022-12-18T07:18:49.425Z,10.93
2022-12-18T07:21:17.730Z,11.40
2022-12-18T07:23:45.738Z,11.27
2022-12-18T07:26:13.347Z,11.55
2022-12-18T07:28:40.912Z,11.15
2022-12-18T07:31:11.878Z,10.93
2022-12-18T07:33:39.380Z,10.25
2022-12-18T07:36:07.672Z,11.10
2022-12-18T07:38:34.916Z,11.07
2022-12-18T07:41:02.840Z,10.60
2022-12-18T07:43:29.633Z,10.48
2022-12-18T07:45:56.503Z,10.88
2022-12-18T07:48:23.385Z,10.60
2022-12-18T07:50:50.228Z,11.10
2022-12-18T07:53:17.026Z,10.27
2022-12-18T07:56:17.851Z,10.88
2022-12-18T07:58:30.941Z,11.18
2022-12-18T08:01:05.252Z,10.77
2022-12-18T08:03:33.212Z,10.88
2022-12-18T08:06:04.084Z,10.40
2022-12-18T08:08:31.244Z,10.82
2022-12-18T08:10:58.602Z,10.30
2022-12-18T08:13:25.684Z,10.60
2022-12-18T08:16:06.846Z,10.23
2022-12-18T08:18:38.086Z,10.60
2022-12-18T08:21:19.340Z,10.90
2022-12-18T08:23:48.726Z,11.43
2022-12-18T08:26:16.139Z,10.35
2022-12-18T08:28:43.038Z,11.27
2022-12-18T08:31:09.892Z,11.70
2022-12-18T08:33:37.338Z,11.35
2022-12-18T08:36:05.173Z,10.90
2022-12-18T08:38:33.258Z,10.48
2022-12-18T08:41:20.781Z,9.95
2022-12-18T08:44:06.309Z,10.85
2022-12-18T08:49:09.733Z,10.98
2022-12-18T08:51:36.982Z,11.05
2022-12-18T08:54:04.137Z,11.23
2022-12-18T08:56:34.036Z,10.95
2022-12-18T08:59:00.845Z,11.45
2022-12-18T09:01:28.997Z,11.10
2022-12-18T09:03:55.956Z,11.23
2022-12-18T09:06:22.986Z,10.50
2022-12-18T09:08:50.026Z,10.77
2022-12-18T09:11:24.640Z,10.45
2022-12-18T09:13:51.698Z,10.52
2022-12-18T09:16:18.631Z,11.52
2022-12-18T09:18:45.542Z,11.18
2022-12-18T09:21:14.092Z,11.50
2022-12-18T09:23:41.106Z,10.90
2022-12-18T09:26:08.114Z,11.40
2022-12-18T09:28:35.049Z,11.13
2022-12-18T09:31:05.562Z,11.10
2022-12-18T09:33:32.395Z,11.43
2022-12-18T09:36:02.209Z,10.70
2022-12-18T09:38:29.077Z,11.95
2022-12-18T09:41:01.527Z,11.85
2022-12-18T09:43:36.961Z,12.45
2022-12-18T09:46:06.595Z,11.10
2022-12-18T09:48:39.684Z,11.23
2022-12-18T09:51:56.173Z,10.85
2022-12-18T09:54:26.037Z,11.73
2022-12-18T09:56:53.579Z,11.35
2022-12-18T09:59:37.024Z,11.70
2022-12-18T10:02:18.488Z,11.15
2022-12-18T10:04:46.760Z,12.80
2022-12-18T10:07:28.807Z,11.15
2022-12-18T10:10:19.440Z,11.32
2022-12-18T10:12:52.049Z,12.95
2022-12-18T10:15:40.052Z,13.43
2022-12-18T10:18:20.288Z,12.30
2022-12-18T10:20:57.800Z,13.50
2022-12-18T10:23:42.461Z,13.43
2022-12-18T10:26:13.712Z,13.85
2022-12-18T10:28:42.490Z,14.20
2022-12-18T10:31:20.161Z,13.05
2022-12-18T10:33:47.048Z,13.05
2022-12-18T10:36:13.892Z,13.85
2022-12-18T10:38:41.066Z,14.43
2022-12-18T10:41:27.638Z,13.90
2022-12-18T10:44:18.764Z,13.85
2022-12-18T10:46:46.950Z,15.13
2022-12-18T10:49:41.583Z,14.70
2022-12-18T10:52:18.760Z,14.82
2022-12-18T10:55:02.832Z,15.52
2022-12-18T10:57:39.645Z,14.30
2022-12-18T11:00:25.607Z,13.45
2022-12-18T11:02:52.995Z,13.80
2022-12-18T11:05:37.914Z,13.70
2022-12-18T11:08:05.172Z,14.67
2022-12-18T11:10:33.688Z,14.73
2022-12-18T11:13:23.121Z,15.30
2022-12-18T11:15:50.115Z,14.10
2022-12-18T11:18:28.548Z,14.63
2022-12-18T11:21:06.545Z,14.27
2022-12-18T11:23:33.393Z,14.57
2022-12-18T11:26:01.341Z,15.38
2022-12-18T11:28:42.048Z,14.57
2022-12-18T11:31:11.001Z,13.95
2022-12-18T11:33:38.802Z,14.63
2022-12-18T11:36:05.885Z,15.13
2022-12-18T11:38:40.292Z,14.90
2022-12-18T11:41:19.043Z,14.73
2022-12-18T11:43:57.030Z,14.35
2022-12-18T11:46:37.768Z,14.85
2022-12-18T11:49:13.467Z,15.18
2022-12-18T11:51:53.148Z,14.90
2022-12-18T11:54:19.950Z,14.85
2022-12-18T11:56:52.471Z,14.57
2022-12-18T11:59:43.561Z,15.07
2022-12-18T12:02:39.733Z,14.82
2022-12-18T12:05:12.699Z,14.50
2022-12-18T12:07:54.431Z,14.38
2022-12-18T12:10:59.571Z,15.10
2022-12-18T12:13:50.418Z,13.65
2022-12-18T12:16:19.008Z,13.70
2022-12-18T12:18:53.530Z,14.15
2022-12-18T12:21:40.676Z,15.65
2022-12-18T12:24:18.909Z,13.77
2022-12-18T12:27:23.319Z,14.20
2022-12-18T12:30:08.530Z,13.70
2022-12-18T12:32:57.359Z,13.02
2022-12-18T12:35:33.202Z,14.27
2022-12-18T12:38:11.006Z,13.57
2022-12-18T12:40:56.920Z,13.77
2022-12-18T12:43:36.795Z,14.52
2022-12-18T12:46:10.642Z,13.75
2022-12-18T12:48:50.739Z,13.95
2022-12-18T12:51:18.893Z,13.38
2022-12-18T12:53:46.209Z,13.57
2022-12-18T12:56:14.874Z,14.10
2022-12-18T12:58:51.655Z,14.07
2022-12-18T13:01:37.049Z,13.00
2022-12-18T13:04:34.372Z,14.13
2022-12-18T13:07:15.621Z,13.48
2022-12-18T13:10:19.013Z,13.10
2022-12-18T13:13:22.319Z,12.90
2022-12-18T13:16:07.527Z,13.80
2022-12-18T13:18:34.520Z,13.57
2022-12-18T13:21:03.162Z,14.23
2022-12-18T13:23:37.668Z,13.63
2022-12-18T13:26:07.505Z,13.57
2022-12-18T13:28:34.454Z,13.13
2022-12-18T13:31:02.130Z,14.25
2022-12-18T13:33:34.896Z,14.23
2022-12-18T13:36:23.678Z,13.70
2022-12-18T13:39:10.925Z,14.65
2022-12-18T13:41:38.112Z,13.45
2022-12-18T13:44:40.954Z,14.02
2022-12-18T13:47:35.679Z,14.05
2022-12-18T13:50:26.991Z,14.77
2022-12-18T13:52:56.691Z,14.20
2022-12-18T13:55:23.628Z,13.23
2022-12-18T13:57:50.497Z,13.68
2022-12-18T14:00:29.635Z,14.13
2022-12-18T14:02:57.532Z,13.82
2022-12-18T14:05:31.133Z,14.23
2022-12-18T14:08:06.363Z,13.50
2022-12-18T14:10:47.899Z,13.35
2022-12-18T14:13:26.140Z,13.93
2022-12-18T14:15:53.154Z,13.48
2022-12-18T14:18:31.846Z,13.88
2022-12-18T14:21:00.049Z,13.13
2022-12-18T14:23:32.796Z,13.70
2022-12-18T14:26:05.384Z,12.73
2022-12-18T14:28:33.061Z,13.32
2022-12-18T14:30:59.979Z,12.77
2022-12-18T14:33:27.793Z,13.50
2022-12-18T14:36:04.196Z,13.48
2022-12-18T14:38:34.798Z,13.02
2022-12-18T14:41:05.844Z,12.57
2022-12-18T14:43:36.461Z,12.98
2022-12-18T14:46:04.525Z,13.77
2022-12-18T14:48:39.756Z,12.20
2022-12-18T14:51:06.563Z,12.80
2022-12-18T14:53:37.462Z,12.77
2022-12-18T14:56:11.296Z,12.68
2022-12-18T14:58:38.148Z,12.30
2022-12-18T15:01:05.107Z,12.75
2022-12-18T15:03:32.009Z,12.30
2022-12-18T15:06:15.656Z,12.27
2022-12-18T15:08:43.613Z,13.43
2022-12-18T15:11:30.203Z,11.68
2022-12-18T15:13:59.068Z,12.70
2022-12-18T15:16:25.984Z,12.13
2022-12-18T15:18:52.850Z,12.52
2022-12-18T15:21:20.415Z,12.45
2022-12-18T15:23:51.682Z,12.40
2022-12-18T15:26:20.251Z,12.05
2022-12-18T15:28:53.821Z,13.23
2022-12-18T15:31:25.612Z,12.73
2022-12-18T15:33:53.384Z,12.52
2022-12-18T15:36:26.392Z,12.57
2022-12-18T15:38:56.101Z,12.40
2022-12-18T15:41:28.107Z,12.63
2022-12-18T15:43:54.917Z,12.75
2022-12-18T15:46:23.293Z,13.15
2022-12-18T15:48:52.809Z,13.43
2022-12-18T15:51:24.632Z,12.35
2022-12-18T15:53:53.420Z,13.20
2022-12-18T15:56:38.803Z,13.80
2022-12-18T15:59:13.908Z,12.63
2022-12-18T16:01:42.786Z,13.60
2022-12-18T16:04:21.550Z,13.13
2022-12-18T16:07:13.696Z,12.90
2022-12-18T16:09:36.927Z,12.07
2022-12-18T16:12:04.029Z,12.88
2022-12-18T16:14:30.992Z,13.95
2022-12-18T16:17:04.775Z,13.13
2022-12-18T16:19:31.609Z,12.82
2022-12-18T16:21:59.064Z,13.50
2022-12-18T16:24:27.480Z,14.13
2022-12-18T16:26:54.824Z,13.77
2022-12-18T16:29:25.670Z,13.50
2022-12-18T16:31:53.119Z,14.13
2022-12-18T16:34:22.960Z,13.82
2022-12-18T16:36:52.496Z,13.32
2022-12-18T16:39:19.300Z,14.48
2022-12-18T16:41:46.095Z,13.77
2022-12-18T16:44:13.186Z,14.70
2022-12-18T16:46:40.320Z,14.15
2022-12-18T16:49:07.225Z,13.65
2022-12-18T16:51:34.462Z,14.15
2022-12-18T16:54:04.005Z,14.55
2022-12-18T16:56:34.867Z,13.80
2022-12-18T16:59:02.336Z,13.80
2022-12-18T17:01:32.344Z,13.73
2022-12-18T17:04:04.165Z,14.02
2022-12-18T17:06:33.292Z,13.50
2022-12-18T17:09:00.916Z,13.70
2022-12-18T17:11:28.816Z,14.70
2022-12-18T17:13:56.078Z,13.15
2022-12-18T17:16:25.446Z,13.38
2022-12-18T17:18:55.231Z,14.27
2022-12-18T17:21:22.090Z,14.75
2022-12-18T17:23:48.899Z,14.95
2022-12-18T17:26:15.795Z,14.95
2022-12-18T17:28:42.743Z,14.85
2022-12-18T17:31:18.515Z,14.30
2022-12-18T17:33:45.353Z,14.45
2022-12-18T17:36:12.558Z,15.27
2022-12-18T17:38:39.586Z,14.20
2022-12-18T17:41:08.172Z,14.75
2022-12-18T17:43:45.775Z,15.57
2022-12-18T17:46:15.692Z,15.57
2022-12-18T17:48:42.585Z,15.35
2022-12-18T17:51:11.020Z,14.95
2022-12-18T17:53:41.811Z,15.18
2022-12-18T17:56:11.725Z,15.07
2022-12-18T17:58:38.684Z,14.27
2022-12-18T18:01:06.014Z,15.68
2022-12-18T18:03:33.428Z,16.25
2022-12-18T18:06:01.557Z,16.80
2022-12-18T18:08:28.650Z,16.42
2022-12-18T18:11:15.928Z,16.00
2022-12-18T18:14:01.467Z,15.45
2022-12-18T18:19:02.162Z,16.35
2022-12-18T18:21:29.158Z,15.93
2022-12-18T18:23:58.867Z,15.85
2022-12-18T18:26:29.186Z,16.90
2022-12-18T18:28:57.814Z,16.10
2022-12-18T18:31:25.079Z,16.58
2022-12-18T18:33:52.157Z,15.95
2022-12-18T18:36:18.974Z,15.77
2022-12-18T18:38:48.541Z,17.02
2022-12-18T18:41:15.670Z,17.50
2022-12-18T18:43:42.898Z,16.38
2022-12-18T18:46:12.380Z,16.02
2022-12-18T18:48:40.227Z,16.23
2022-12-18T18:51:11.799Z,17.80
2022-12-18T18:53:44.851Z,16.20
2022-12-18T18:59:00.472Z,17.90
2022-12-18T19:01:27.486Z,17.63
2022-12-18T19:03:54.458Z,17.33
2022-12-18T19:06:26.561Z,15.95
2022-12-18T19:08:54.241Z,17.58
2022-12-18T19:11:40.283Z,17.13
2022-12-18T19:14:08.059Z,17.58
2022-12-18T19:16:35.064Z,19.05
2022-12-18T19:19:02.736Z,19.20
2022-12-18T19:21:31.411Z,18.75
2022-12-18T19:24:00.758Z,19.85
2022-12-18T19:26:28.532Z,18.83
2022-12-18T19:29:03.939Z,18.42
2022-12-18T19:31:35.523Z,20.00
2022-12-18T19:34:03.859Z,19.48
2022-12-18T19:36:30.783Z,19.83
2022-12-18T19:38:58.855Z,20.50
2022-12-18T19:41:25.940Z,20.40
2022-12-18T19:43:56.125Z,21.00
2022-12-18T19:46:23.707Z,20.20
2022-12-18T19:48:50.730Z,22.75
2022-12-18T19:51:19.925Z,22.90
2022-12-18T19:53:46.890Z,22.30
2022-12-18T19:56:15.368Z,21.83
2022-12-18T19:58:42.599Z,23.30
2022-12-18T20:01:09.714Z,22.33
2022-12-18T20:03:38.561Z,23.23
2022-12-18T20:06:10.034Z,22.60
2022-12-18T20:08:37.179Z,22.02
2022-12-18T20:11:04.021Z,22.05
2022-12-18T20:13:31.186Z,23.55
2022-12-18T20:15:58.277Z,21.50
2022-12-18T20:18:25.643Z,20.77
2022-12-18T20:20:52.688Z,23.00
2022-12-18T20:23:22.844Z,24.20
2022-12-18T20:25:49.878Z,21.50
2022-12-18T20:28:16.761Z,22.75
2022-12-18T20:30:43.592Z,23.13
2022-12-18T20:33:10.429Z,22.02
2022-12-18T20:35:37.418Z,21.17
2022-12-18T20:38:04.964Z,21.15
2022-12-18T20:40:33.013Z,23.88
2022-12-18T20:43:00.149Z,21.40
2022-12-18T20:45:28.526Z,23.02
2022-12-18T20:47:57.225Z,22.05
2022-12-18T20:50:24.070Z,21.80
2022-12-18T20:52:50.864Z,20.88
2022-12-18T20:55:19.480Z,22.20
2022-12-18T20:57:46.404Z,21.00
2022-12-18T21:00:13.764Z,22.65
2022-12-18T21:02:45.845Z,21.83
2022-12-18T21:05:12.804Z,20.60
2022-12-18T21:07:39.617Z,21.42
2022-12-18T21:10:06.864Z,21.60
2022-12-18T21:12:40.344Z,21.15
2022-12-18T21:15:11.172Z,20.45
2022-12-18T21:17:41.705Z,20.95
2022-12-18T21:20:13.303Z,19.70
2022-12-18T21:22:44.616Z,21.52
2022-12-18T21:25:11.464Z,20.48
2022-12-18T21:27:38.262Z,20.15
2022-12-18T21:30:05.819Z,19.45
2022-12-18T21:32:33.692Z,20.33
2022-12-18T21:35:00.960Z,19.55
2022-12-18T21:37:27.848Z,20.33
2022-12-18T21:39:54.692Z,19.13
2022-12-18T21:42:40.456Z,18.27
2022-12-18T21:45:07.799Z,19.38
2022-12-18T21:47:34.617Z,20.33
2022-12-18T21:50:01.477Z,20.70
2022-12-18T21:52:32.052Z,18.45
2022-12-18T21:55:07.825Z,18.73
2022-12-18T21:57:36.173Z,18.33
2022-12-18T22:00:04.426Z,18.98
2022-12-18T22:02:39.114Z,17.85
2022-12-18T22:05:06.426Z,18.95
2022-12-18T22:07:33.845Z,18.33
2022-12-18T22:10:00.917Z,18.25
2022-12-18T22:12:35.671Z,18.15
2022-12-18T22:15:07.139Z,17.30
2022-12-18T22:17:33.986Z,19.30
2022-12-18T22:20:01.291Z,19.45
2022-12-18T22:22:28.474Z,18.48
2022-12-18T22:24:55.300Z,18.27
2022-12-18T22:27:22.167Z,18.75
2022-12-18T22:30:04.279Z,18.00
2022-12-18T22:32:35.551Z,18.40
2022-12-18T22:35:08.367Z,17.35
2022-12-18T22:37:36.772Z,19.77
2022-12-18T22:40:05.529Z,18.92
2022-12-18T22:42:32.965Z,18.30
2022-12-18T22:45:00.462Z,18.05
2022-12-18T22:47:30.131Z,17.88
2022-12-18T22:49:58.074Z,18.23
2022-12-18T22:52:25.369Z,18.25
2022-12-18T22:54:53.316Z,17.58
2022-12-18T22:57:21.774Z,19.50
2022-12-18T22:59:49.720Z,19.20
2022-12-18T23:02:18.050Z,19.35
2022-12-18T23:04:45.238Z,17.77
2022-12-18T23:07:12.627Z,18.65
2022-12-18T23:09:39.628Z,18.30
2022-12-18T23:12:06.777Z,17.88
2022-12-18T23:14:33.609Z,19.52
2022-12-18T23:17:00.447Z,19.05
2022-12-18T23:19:27.304Z,18.25
2022-12-18T23:21:54.537Z,18.77
2022-12-18T23:24:23.485Z,17.92
2022-12-18T23:26:50.342Z,18.83
2022-12-18T23:29:17.154Z,17.90
2022-12-18T23:31:44.100Z,17.48
2022-12-18T23:34:12.501Z,18.17
2022-12-18T23:36:46.392Z,17.90
2022-12-18T23:39:18.805Z,19.13
2022-12-18T23:41:58.336Z,18.55
2022-12-18T23:44:25.378Z,17.60
2022-12-18T23:46:52.833Z,19.40
2022-12-18T23:49:19.775Z,18.42
2022-12-18T23:51:46.690Z,18.40
2022-12-18T23:54:13.516Z,18.05
2022-12-18T23:56:40.327Z,18.48
2022-12-18T23:59:07.189Z,19.48
